sensor_id;sensor_type;location;lat;lon;timestamp;temperature;humidity
71523;HTU21D;59343;51.102;5.884;2022-09-20T00:01:13;14.95;75.69
71523;HTU21D;59343;51.102;5.884;2022-09-20T00:03:45;14.96;75.68
71523;HTU21D;59343;51.102;5.884;2022-09-20T00:06:15;14.99;75.60
71523;HTU21D;59343;51.102;5.884;2022-09-20T00:08:41;15.01;75.43
71523;HTU21D;59343;51.102;5.884;2022-09-20T00:11:14;15.02;75.32
71523;HTU21D;59343;51.102;5.884;2022-09-20T00:13:43;15.00;75.28
71523;HTU21D;59343;51.102;5.884;2022-09-20T00:16:12;14.99;75.28
71523;HTU21D;59343;51.102;5.884;2022-09-20T00:18:38;14.98;75.25
71523;HTU21D;59343;51.102;5.884;2022-09-20T00:21:05;14.97;75.19
71523;HTU21D;59343;51.102;5.884;2022-09-20T00:23:31;14.94;75.32
71523;HTU21D;59343;51.102;5.884;2022-09-20T00:26:03;14.93;75.44
71523;HTU21D;59343;51.102;5.884;2022-09-20T00:28:30;14.89;75.44
71523;HTU21D;59343;51.102;5.884;2022-09-20T00:30:56;14.87;75.63
71523;HTU21D;59343;51.102;5.884;2022-09-20T00:33:24;14.85;75.72
71523;HTU21D;59343;51.102;5.884;2022-09-20T00:36:10;14.87;75.70
71523;HTU21D;59343;51.102;5.884;2022-09-20T00:38:35;14.87;75.79
71523;HTU21D;59343;51.102;5.884;2022-09-20T00:41:01;14.86;75.79
71523;HTU21D;59343;51.102;5.884;2022-09-20T00:43:44;14.87;75.79
71523;HTU21D;59343;51.102;5.884;2022-09-20T00:46:38;14.89;75.53
71523;HTU21D;59343;51.102;5.884;2022-09-20T00:49:15;14.92;75.53
71523;HTU21D;59343;51.102;5.884;2022-09-20T00:51:48;14.91;75.54
71523;HTU21D;59343;51.102;5.884;2022-09-20T00:54:19;14.93;75.63
71523;HTU21D;59343;51.102;5.884;2022-09-20T00:56:46;14.93;75.52
71523;HTU21D;59343;51.102;5.884;2022-09-20T00:59:16;14.93;75.57
71523;HTU21D;59343;51.102;5.884;2022-09-20T01:01:48;14.89;75.62
71523;HTU21D;59343;51.102;5.884;2022-09-20T01:04:15;14.88;75.63
71523;HTU21D;59343;51.102;5.884;2022-09-20T01:06:45;14.84;75.65
71523;HTU21D;59343;51.102;5.884;2022-09-20T01:09:11;14.82;75.75
71523;HTU21D;59343;51.102;5.884;2022-09-20T01:11:39;14.78;75.84
71523;HTU21D;59343;51.102;5.884;2022-09-20T01:14:07;14.73;75.96
71523;HTU21D;59343;51.102;5.884;2022-09-20T01:16:36;14.72;76.05
71523;HTU21D;59343;51.102;5.884;2022-09-20T01:19:27;14.70;76.15
71523;HTU21D;59343;51.102;5.884;2022-09-20T01:21:56;14.70;76.09
71523;HTU21D;59343;51.102;5.884;2022-09-20T01:24:45;14.67;75.98
71523;HTU21D;59343;51.102;5.884;2022-09-20T01:30:05;14.63;76.04
71523;HTU21D;59343;51.102;5.884;2022-09-20T01:32:46;14.59;76.05
71523;HTU21D;59343;51.102;5.884;2022-09-20T01:35:18;14.56;76.28
71523;HTU21D;59343;51.102;5.884;2022-09-20T01:40:58;14.56;76.47
71523;HTU21D;59343;51.102;5.884;2022-09-20T01:43:35;14.57;76.49
71523;HTU21D;59343;51.102;5.884;2022-09-20T01:46:28;14.60;76.52
71523;HTU21D;59343;51.102;5.884;2022-09-20T02:08:16;14.67;76.89
71523;HTU21D;59343;51.102;5.884;2022-09-20T02:16:47;14.64;76.90
71523;HTU21D;59343;51.102;5.884;2022-09-20T02:30:23;14.54;77.34
71523;HTU21D;59343;51.102;5.884;2022-09-20T02:36:00;14.50;77.68
71523;HTU21D;59343;51.102;5.884;2022-09-20T02:38:33;14.49;77.84
71523;HTU21D;59343;51.102;5.884;2022-09-20T02:56:17;14.42;78.59
71523;HTU21D;59343;51.102;5.884;2022-09-20T02:58:35;14.41;78.64
71523;HTU21D;59343;51.102;5.884;2022-09-20T03:09:46;14.41;78.97
71523;HTU21D;59343;51.102;5.884;2022-09-20T03:12:59;14.44;78.95
71523;HTU21D;59343;51.102;5.884;2022-09-20T03:16:30;14.42;78.91
71523;HTU21D;59343;51.102;5.884;2022-09-20T03:18:53;14.39;78.95
71523;HTU21D;59343;51.102;5.884;2022-09-20T03:29:54;14.38;79.33
71523;HTU21D;59343;51.102;5.884;2022-09-20T03:46:10;14.47;78.97
71523;HTU21D;59343;51.102;5.884;2022-09-20T03:51:30;14.45;78.90
71523;HTU21D;59343;51.102;5.884;2022-09-20T03:54:37;14.42;78.92
71523;HTU21D;59343;51.102;5.884;2022-09-20T03:57:25;14.40;78.90
71523;HTU21D;59343;51.102;5.884;2022-09-20T04:02:56;14.30;79.20
71523;HTU21D;59343;51.102;5.884;2022-09-20T04:13:39;14.25;79.64
71523;HTU21D;59343;51.102;5.884;2022-09-20T04:19:13;14.19;79.88
71523;HTU21D;59343;51.102;5.884;2022-09-20T04:21:54;14.21;80.01
71523;HTU21D;59343;51.102;5.884;2022-09-20T04:24:48;14.21;80.04
71523;HTU21D;59343;51.102;5.884;2022-09-20T04:27:28;14.22;79.95
71523;HTU21D;59343;51.102;5.884;2022-09-20T04:30:18;14.24;79.78
71523;HTU21D;59343;51.102;5.884;2022-09-20T04:38:31;14.23;79.65
71523;HTU21D;59343;51.102;5.884;2022-09-20T05:01:11;14.08;80.44
71523;HTU21D;59343;51.102;5.884;2022-09-20T05:26:18;14.10;80.84
71523;HTU21D;59343;51.102;5.884;2022-09-20T05:32:05;14.11;80.87
71523;HTU21D;59343;51.102;5.884;2022-09-20T05:35:03;14.14;80.87
71523;HTU21D;59343;51.102;5.884;2022-09-20T05:37:45;14.20;80.75
71523;HTU21D;59343;51.102;5.884;2022-09-20T05:40:35;14.21;80.56
71523;HTU21D;59343;51.102;5.884;2022-09-20T05:43:26;14.18;80.59
71523;HTU21D;59343;51.102;5.884;2022-09-20T05:46:15;14.19;80.60
71523;HTU21D;59343;51.102;5.884;2022-09-20T05:57:38;14.03;81.14
71523;HTU21D;59343;51.102;5.884;2022-09-20T06:00:14;14.04;81.27
71523;HTU21D;59343;51.102;5.884;2022-09-20T06:17:01;14.15;81.27
71523;HTU21D;59343;51.102;5.884;2022-09-20T06:19:51;14.18;81.33
71523;HTU21D;59343;51.102;5.884;2022-09-20T06:30:51;14.35;81.43
71523;HTU21D;59343;51.102;5.884;2022-09-20T06:33:19;14.37;81.15
71523;HTU21D;59343;51.102;5.884;2022-09-20T06:41:17;14.41;81.04
71523;HTU21D;59343;51.102;5.884;2022-09-20T06:43:58;14.42;81.07
71523;HTU21D;59343;51.102;5.884;2022-09-20T06:46:25;14.47;81.05
71523;HTU21D;59343;51.102;5.884;2022-09-20T06:48:51;14.52;80.75
71523;HTU21D;59343;51.102;5.884;2022-09-20T06:51:17;14.51;80.72
71523;HTU21D;59343;51.102;5.884;2022-09-20T06:53:43;14.54;80.55
71523;HTU21D;59343;51.102;5.884;2022-09-20T06:56:30;14.56;80.32
71523;HTU21D;59343;51.102;5.884;2022-09-20T06:59:00;14.63;80.01
71523;HTU21D;59343;51.102;5.884;2022-09-20T07:01:25;14.66;79.73
71523;HTU21D;59343;51.102;5.884;2022-09-20T07:03:51;14.67;79.48
71523;HTU21D;59343;51.102;5.884;2022-09-20T07:06:17;14.70;79.21
71523;HTU21D;59343;51.102;5.884;2022-09-20T07:08:47;14.71;79.00
71523;HTU21D;59343;51.102;5.884;2022-09-20T07:11:15;14.70;78.82
71523;HTU21D;59343;51.102;5.884;2022-09-20T07:13:42;14.72;78.84
71523;HTU21D;59343;51.102;5.884;2022-09-20T07:16:13;14.74;78.70
71523;HTU21D;59343;51.102;5.884;2022-09-20T07:18:39;14.80;78.82
71523;HTU21D;59343;51.102;5.884;2022-09-20T07:21:13;14.89;78.68
71523;HTU21D;59343;51.102;5.884;2022-09-20T07:23:40;15.00;78.56
71523;HTU21D;59343;51.102;5.884;2022-09-20T07:26:23;15.09;78.60
71523;HTU21D;59343;51.102;5.884;2022-09-20T07:28:50;15.16;78.04
71523;HTU21D;59343;51.102;5.884;2022-09-20T07:31:18;15.25;77.92
71523;HTU21D;59343;51.102;5.884;2022-09-20T07:33:44;15.32;77.63
71523;HTU21D;59343;51.102;5.884;2022-09-20T07:36:11;15.39;77.29
71523;HTU21D;59343;51.102;5.884;2022-09-20T07:38:39;15.47;76.82
71523;HTU21D;59343;51.102;5.884;2022-09-20T07:41:05;15.49;76.55
71523;HTU21D;59343;51.102;5.884;2022-09-20T07:43:32;15.49;76.64
71523;HTU21D;59343;51.102;5.884;2022-09-20T07:45:58;15.55;76.59
71523;HTU21D;59343;51.102;5.884;2022-09-20T07:48:33;15.57;76.38
71523;HTU21D;59343;51.102;5.884;2022-09-20T07:51:05;15.58;76.34
71523;HTU21D;59343;51.102;5.884;2022-09-20T07:53:32;15.59;76.15
71523;HTU21D;59343;51.102;5.884;2022-09-20T07:56:03;15.61;76.18
71523;HTU21D;59343;51.102;5.884;2022-09-20T07:58:31;15.66;76.06
71523;HTU21D;59343;51.102;5.884;2022-09-20T08:01:04;15.70;75.94
71523;HTU21D;59343;51.102;5.884;2022-09-20T08:03:31;15.71;75.57
71523;HTU21D;59343;51.102;5.884;2022-09-20T08:06:06;15.72;75.32
71523;HTU21D;59343;51.102;5.884;2022-09-20T08:08:38;15.76;75.46
71523;HTU21D;59343;51.102;5.884;2022-09-20T08:11:11;15.80;75.55
71523;HTU21D;59343;51.102;5.884;2022-09-20T08:13:51;15.80;75.44
71523;HTU21D;59343;51.102;5.884;2022-09-20T08:16:19;15.80;75.38
71523;HTU21D;59343;51.102;5.884;2022-09-20T08:18:51;15.82;75.32
71523;HTU21D;59343;51.102;5.884;2022-09-20T08:21:17;15.85;75.21
71523;HTU21D;59343;51.102;5.884;2022-09-20T08:23:45;15.84;75.37
71523;HTU21D;59343;51.102;5.884;2022-09-20T08:26:18;15.85;75.37
71523;HTU21D;59343;51.102;5.884;2022-09-20T08:28:46;15.82;75.38
71523;HTU21D;59343;51.102;5.884;2022-09-20T08:31:17;15.83;75.42
71523;HTU21D;59343;51.102;5.884;2022-09-20T08:33:44;15.83;75.23
71523;HTU21D;59343;51.102;5.884;2022-09-20T08:36:17;15.87;75.23
71523;HTU21D;59343;51.102;5.884;2022-09-20T08:38:44;15.95;75.28
71523;HTU21D;59343;51.102;5.884;2022-09-20T08:43:57;16.08;74.49
71523;HTU21D;59343;51.102;5.884;2022-09-20T08:47:02;16.11;74.51
71523;HTU21D;59343;51.102;5.884;2022-09-20T08:49:31;16.17;73.83
71523;HTU21D;59343;51.102;5.884;2022-09-20T08:51:59;16.17;73.71
71523;HTU21D;59343;51.102;5.884;2022-09-20T08:54:30;16.26;73.50
71523;HTU21D;59343;51.102;5.884;2022-09-20T08:57:05;16.32;73.09
71523;HTU21D;59343;51.102;5.884;2022-09-20T08:59:35;16.36;72.58
71523;HTU21D;59343;51.102;5.884;2022-09-20T09:02:01;16.37;72.09
71523;HTU21D;59343;51.102;5.884;2022-09-20T09:04:34;16.36;71.74
71523;HTU21D;59343;51.102;5.884;2022-09-20T09:07:01;16.39;71.84
71523;HTU21D;59343;51.102;5.884;2022-09-20T09:09:28;16.42;71.72
71523;HTU21D;59343;51.102;5.884;2022-09-20T09:11:56;16.46;71.58
71523;HTU21D;59343;51.102;5.884;2022-09-20T09:14:27;16.55;71.69
71523;HTU21D;59343;51.102;5.884;2022-09-20T09:17:19;16.62;70.92
71523;HTU21D;59343;51.102;5.884;2022-09-20T09:30:34;16.78;70.81
71523;HTU21D;59343;51.102;5.884;2022-09-20T09:35:52;16.78;69.63
71523;HTU21D;59343;51.102;5.884;2022-09-20T09:38:28;16.73;69.32
71523;HTU21D;59343;51.102;5.884;2022-09-20T09:40:57;16.64;69.55
71523;HTU21D;59343;51.102;5.884;2022-09-20T09:43:26;16.64;70.17
71523;HTU21D;59343;51.102;5.884;2022-09-20T09:46:14;16.74;70.58
71523;HTU21D;59343;51.102;5.884;2022-09-20T09:48:42;16.81;70.07
71523;HTU21D;59343;51.102;5.884;2022-09-20T09:51:19;16.88;69.92
71523;HTU21D;59343;51.102;5.884;2022-09-20T09:53:47;16.95;69.45
71523;HTU21D;59343;51.102;5.884;2022-09-20T09:56:43;16.99;68.53
71523;HTU21D;59343;51.102;5.884;2022-09-20T09:59:45;16.96;68.18
71523;HTU21D;59343;51.102;5.884;2022-09-20T10:07:18;17.09;67.20
71523;HTU21D;59343;51.102;5.884;2022-09-20T10:15:44;17.20;65.51
71523;HTU21D;59343;51.102;5.884;2022-09-20T10:25:00;17.37;63.08
71523;HTU21D;59343;51.102;5.884;2022-09-20T10:46:36;17.85;58.25
71523;HTU21D;59343;51.102;5.884;2022-09-20T10:51:57;18.21;57.03
71523;HTU21D;59343;51.102;5.884;2022-09-20T11:00:22;17.99;56.79
71523;HTU21D;59343;51.102;5.884;2022-09-20T11:08:37;17.60;57.90
71523;HTU21D;59343;51.102;5.884;2022-09-20T11:11:32;17.44;57.98
71523;HTU21D;59343;51.102;5.884;2022-09-20T11:14:19;17.32;58.48
71523;HTU21D;59343;51.102;5.884;2022-09-20T11:16:54;17.24;58.80
71523;HTU21D;59343;51.102;5.884;2022-09-20T11:22:41;17.06;59.98
71523;HTU21D;59343;51.102;5.884;2022-09-20T11:27:55;16.89;60.41
71523;HTU21D;59343;51.102;5.884;2022-09-20T11:30:23;16.82;60.60
71523;HTU21D;59343;51.102;5.884;2022-09-20T11:35:37;16.84;60.82
71523;HTU21D;59343;51.102;5.884;2022-09-20T11:41:16;16.80;60.82
71523;HTU21D;59343;51.102;5.884;2022-09-20T11:43:46;16.75;61.05
71523;HTU21D;59343;51.102;5.884;2022-09-20T11:46:34;16.69;61.33
71523;HTU21D;59343;51.102;5.884;2022-09-20T11:49:10;16.57;61.71
71523;HTU21D;59343;51.102;5.884;2022-09-20T11:57:24;16.28;63.60
71523;HTU21D;59343;51.102;5.884;2022-09-20T11:59:55;16.21;63.92
71523;HTU21D;59343;51.102;5.884;2022-09-20T12:04:59;16.20;64.28
71523;HTU21D;59343;51.102;5.884;2022-09-20T12:07:44;16.18;64.47
71523;HTU21D;59343;51.102;5.884;2022-09-20T12:10:26;16.15;64.47
71523;HTU21D;59343;51.102;5.884;2022-09-20T12:12:59;16.16;64.53
71523;HTU21D;59343;51.102;5.884;2022-09-20T12:15:28;16.16;64.65
71523;HTU21D;59343;51.102;5.884;2022-09-20T12:28:39;16.27;63.17
71523;HTU21D;59343;51.102;5.884;2022-09-20T12:58:18;16.78;63.48
71523;HTU21D;59343;51.102;5.884;2022-09-20T13:09:06;17.04;62.60
71523;HTU21D;59343;51.102;5.884;2022-09-20T13:11:44;17.13;62.81
71523;HTU21D;59343;51.102;5.884;2022-09-20T13:14:21;17.13;62.49
71523;HTU21D;59343;51.102;5.884;2022-09-20T13:19:41;17.01;62.10
71523;HTU21D;59343;51.102;5.884;2022-09-20T13:22:29;16.95;62.17
71523;HTU21D;59343;51.102;5.884;2022-09-20T13:25:02;16.96;62.38
71523;HTU21D;59343;51.102;5.884;2022-09-20T13:27:33;16.93;62.42
71523;HTU21D;59343;51.102;5.884;2022-09-20T13:30:17;17.00;62.45
71523;HTU21D;59343;51.102;5.884;2022-09-20T13:32:45;17.05;62.08
71523;HTU21D;59343;51.102;5.884;2022-09-20T13:37:50;17.15;62.22
71523;HTU21D;59343;51.102;5.884;2022-09-20T13:40:18;17.16;62.02
71523;HTU21D;59343;51.102;5.884;2022-09-20T13:42:47;17.14;62.12
71523;HTU21D;59343;51.102;5.884;2022-09-20T13:45:16;17.10;62.18
71523;HTU21D;59343;51.102;5.884;2022-09-20T13:47:48;17.13;62.35
71523;HTU21D;59343;51.102;5.884;2022-09-20T13:50:20;17.13;61.99
71523;HTU21D;59343;51.102;5.884;2022-09-20T13:52:58;17.13;61.99
71523;HTU21D;59343;51.102;5.884;2022-09-20T13:55:36;17.07;61.64
71523;HTU21D;59343;51.102;5.884;2022-09-20T13:58:28;17.10;61.63
71523;HTU21D;59343;51.102;5.884;2022-09-20T14:00:56;17.17;61.61
71523;HTU21D;59343;51.102;5.884;2022-09-20T14:03:25;17.22;61.50
71523;HTU21D;59343;51.102;5.884;2022-09-20T14:06:06;17.29;61.69
71523;HTU21D;59343;51.102;5.884;2022-09-20T14:08:40;17.34;61.52
71523;HTU21D;59343;51.102;5.884;2022-09-20T14:11:15;17.37;61.44
71523;HTU21D;59343;51.102;5.884;2022-09-20T14:13:47;17.36;61.28
71523;HTU21D;59343;51.102;5.884;2022-09-20T14:16:17;17.34;61.37
71523;HTU21D;59343;51.102;5.884;2022-09-20T14:18:46;17.38;61.85
71523;HTU21D;59343;51.102;5.884;2022-09-20T14:21:25;17.47;61.56
71523;HTU21D;59343;51.102;5.884;2022-09-20T14:23:57;17.54;61.02
71523;HTU21D;59343;51.102;5.884;2022-09-20T14:35:19;17.77;60.35
71523;HTU21D;59343;51.102;5.884;2022-09-20T14:37:53;17.77;60.25
71523;HTU21D;59343;51.102;5.884;2022-09-20T14:42:55;17.73;60.66
71523;HTU21D;59343;51.102;5.884;2022-09-20T14:45:26;17.80;60.51
71523;HTU21D;59343;51.102;5.884;2022-09-20T14:48:00;17.87;60.12
71523;HTU21D;59343;51.102;5.884;2022-09-20T14:55:39;17.92;59.72
71523;HTU21D;59343;51.102;5.884;2022-09-20T14:58:12;17.90;59.25
71523;HTU21D;59343;51.102;5.884;2022-09-20T15:03:25;17.82;59.18
71523;HTU21D;59343;51.102;5.884;2022-09-20T15:05:52;17.76;59.39
71523;HTU21D;59343;51.102;5.884;2022-09-20T15:08:18;17.74;59.74
71523;HTU21D;59343;51.102;5.884;2022-09-20T15:10:45;17.79;59.76
71523;HTU21D;59343;51.102;5.884;2022-09-20T15:13:12;17.85;59.82
71523;HTU21D;59343;51.102;5.884;2022-09-20T15:15:38;17.87;59.65
71523;HTU21D;59343;51.102;5.884;2022-09-20T15:18:17;17.89;59.57
71523;HTU21D;59343;51.102;5.884;2022-09-20T15:20:45;17.85;59.66
71523;HTU21D;59343;51.102;5.884;2022-09-20T15:23:11;17.83;59.63
71523;HTU21D;59343;51.102;5.884;2022-09-20T15:25:37;17.80;59.82
71523;HTU21D;59343;51.102;5.884;2022-09-20T15:28:03;17.73;59.79
71523;HTU21D;59343;51.102;5.884;2022-09-20T15:30:32;17.70;60.19
71523;HTU21D;59343;51.102;5.884;2022-09-20T15:32:58;17.68;60.45
71523;HTU21D;59343;51.102;5.884;2022-09-20T15:35:25;17.65;60.10
71523;HTU21D;59343;51.102;5.884;2022-09-20T15:37:51;17.56;60.41
71523;HTU21D;59343;51.102;5.884;2022-09-20T15:40:16;17.52;60.91
71523;HTU21D;59343;51.102;5.884;2022-09-20T15:42:43;17.51;61.27
71523;HTU21D;59343;51.102;5.884;2022-09-20T15:45:11;17.47;61.40
71523;HTU21D;59343;51.102;5.884;2022-09-20T15:47:38;17.41;61.73
71523;HTU21D;59343;51.102;5.884;2022-09-20T15:50:06;17.40;62.08
71523;HTU21D;59343;51.102;5.884;2022-09-20T15:52:34;17.38;61.90
71523;HTU21D;59343;51.102;5.884;2022-09-20T15:55:02;17.37;62.16
71523;HTU21D;59343;51.102;5.884;2022-09-20T15:57:30;17.30;62.38
71523;HTU21D;59343;51.102;5.884;2022-09-20T15:59:56;17.23;62.87
71523;HTU21D;59343;51.102;5.884;2022-09-20T16:02:23;17.25;63.10
71523;HTU21D;59343;51.102;5.884;2022-09-20T16:04:49;17.23;63.39
71523;HTU21D;59343;51.102;5.884;2022-09-20T16:07:20;17.24;63.52
71523;HTU21D;59343;51.102;5.884;2022-09-20T16:09:54;17.24;63.41
71523;HTU21D;59343;51.102;5.884;2022-09-20T16:12:23;17.25;63.43
71523;HTU21D;59343;51.102;5.884;2022-09-20T16:14:49;17.28;63.62
71523;HTU21D;59343;51.102;5.884;2022-09-20T16:17:16;17.30;63.74
71523;HTU21D;59343;51.102;5.884;2022-09-20T16:19:43;17.32;63.73
71523;HTU21D;59343;51.102;5.884;2022-09-20T16:22:12;17.32;63.34
71523;HTU21D;59343;51.102;5.884;2022-09-20T16:24:38;17.30;63.27
71523;HTU21D;59343;51.102;5.884;2022-09-20T16:27:06;17.26;63.43
71523;HTU21D;59343;51.102;5.884;2022-09-20T16:29:32;17.25;63.69
71523;HTU21D;59343;51.102;5.884;2022-09-20T16:32:00;17.29;63.69
71523;HTU21D;59343;51.102;5.884;2022-09-20T16:34:33;17.30;63.87
71523;HTU21D;59343;51.102;5.884;2022-09-20T16:37:04;17.34;63.95
71523;HTU21D;59343;51.102;5.884;2022-09-20T16:39:32;17.35;64.11
71523;HTU21D;59343;51.102;5.884;2022-09-20T16:42:00;17.35;64.14
71523;HTU21D;59343;51.102;5.884;2022-09-20T16:44:31;17.33;63.72
71523;HTU21D;59343;51.102;5.884;2022-09-20T16:46:58;17.31;63.92
71523;HTU21D;59343;51.102;5.884;2022-09-20T16:49:24;17.29;63.93
71523;HTU21D;59343;51.102;5.884;2022-09-20T16:51:53;17.26;63.93
71523;HTU21D;59343;51.102;5.884;2022-09-20T16:54:19;17.21;63.82
71523;HTU21D;59343;51.102;5.884;2022-09-20T16:56:48;17.19;63.62
71523;HTU21D;59343;51.102;5.884;2022-09-20T16:59:16;17.17;62.79
71523;HTU21D;59343;51.102;5.884;2022-09-20T17:01:44;17.15;62.57
71523;HTU21D;59343;51.102;5.884;2022-09-20T17:04:10;17.15;62.43
71523;HTU21D;59343;51.102;5.884;2022-09-20T17:06:40;17.13;62.61
71523;HTU21D;59343;51.102;5.884;2022-09-20T17:09:08;17.10;62.61
71523;HTU21D;59343;51.102;5.884;2022-09-20T17:11:37;17.08;63.13
71523;HTU21D;59343;51.102;5.884;2022-09-20T17:14:05;17.03;64.30
71523;HTU21D;59343;51.102;5.884;2022-09-20T17:16:33;16.96;65.13
71523;HTU21D;59343;51.102;5.884;2022-09-20T17:19:02;16.92;65.64
71523;HTU21D;59343;51.102;5.884;2022-09-20T17:21:29;16.87;66.02
71523;HTU21D;59343;51.102;5.884;2022-09-20T17:23:57;16.81;66.43
71523;HTU21D;59343;51.102;5.884;2022-09-20T17:26:35;16.78;66.65
71523;HTU21D;59343;51.102;5.884;2022-09-20T17:29:04;16.75;66.89
71523;HTU21D;59343;51.102;5.884;2022-09-20T17:31:34;16.71;67.04
71523;HTU21D;59343;51.102;5.884;2022-09-20T17:34:02;16.67;67.20
71523;HTU21D;59343;51.102;5.884;2022-09-20T17:36:35;16.62;67.37
71523;HTU21D;59343;51.102;5.884;2022-09-20T17:39:04;16.58;67.52
71523;HTU21D;59343;51.102;5.884;2022-09-20T17:41:32;16.54;67.75
71523;HTU21D;59343;51.102;5.884;2022-09-20T17:43:59;16.48;67.99
71523;HTU21D;59343;51.102;5.884;2022-09-20T17:46:29;16.43;68.20
71523;HTU21D;59343;51.102;5.884;2022-09-20T17:48:59;16.39;68.50
71523;HTU21D;59343;51.102;5.884;2022-09-20T17:51:31;16.35;68.72
71523;HTU21D;59343;51.102;5.884;2022-09-20T17:53:57;16.30;68.97
71523;HTU21D;59343;51.102;5.884;2022-09-20T17:56:24;16.27;69.20
71523;HTU21D;59343;51.102;5.884;2022-09-20T17:58:54;16.25;69.35
71523;HTU21D;59343;51.102;5.884;2022-09-20T18:01:21;16.24;69.68
71523;HTU21D;59343;51.102;5.884;2022-09-20T18:03:48;16.15;69.94
71523;HTU21D;59343;51.102;5.884;2022-09-20T18:06:21;16.08;70.14
71523;HTU21D;59343;51.102;5.884;2022-09-20T18:08:53;16.06;70.23
71523;HTU21D;59343;51.102;5.884;2022-09-20T18:11:34;15.97;70.55
71523;HTU21D;59343;51.102;5.884;2022-09-20T18:14:02;15.90;71.06
71523;HTU21D;59343;51.102;5.884;2022-09-20T18:16:28;15.87;71.25
71523;HTU21D;59343;51.102;5.884;2022-09-20T18:18:55;15.88;70.93
71523;HTU21D;59343;51.102;5.884;2022-09-20T18:21:23;15.85;70.87
71523;HTU21D;59343;51.102;5.884;2022-09-20T18:23:51;15.84;70.97
71523;HTU21D;59343;51.102;5.884;2022-09-20T18:26:25;15.81;71.27
71523;HTU21D;59343;51.102;5.884;2022-09-20T18:28:58;15.76;71.35
71523;HTU21D;59343;51.102;5.884;2022-09-20T18:34:09;15.62;71.90
71523;HTU21D;59343;51.102;5.884;2022-09-20T18:36:37;15.55;72.31
71523;HTU21D;59343;51.102;5.884;2022-09-20T18:39:05;15.45;72.55
71523;HTU21D;59343;51.102;5.884;2022-09-20T18:41:34;15.43;73.01
71523;HTU21D;59343;51.102;5.884;2022-09-20T18:44:02;15.42;72.71
71523;HTU21D;59343;51.102;5.884;2022-09-20T18:46:30;15.43;72.51
71523;HTU21D;59343;51.102;5.884;2022-09-20T18:48:57;15.42;72.67
71523;HTU21D;59343;51.102;5.884;2022-09-20T18:51:25;15.42;72.91
71523;HTU21D;59343;51.102;5.884;2022-09-20T18:53:54;15.41;72.85
71523;HTU21D;59343;51.102;5.884;2022-09-20T18:56:27;15.36;72.77
71523;HTU21D;59343;51.102;5.884;2022-09-20T19:01:50;15.21;73.59
71523;HTU21D;59343;51.102;5.884;2022-09-20T19:15:36;14.96;74.17
71523;HTU21D;59343;51.102;5.884;2022-09-20T19:24:52;14.75;74.69
71523;HTU21D;59343;51.102;5.884;2022-09-20T19:26:55;14.74;74.70
71523;HTU21D;59343;51.102;5.884;2022-09-20T19:29:23;14.71;74.74
71523;HTU21D;59343;51.102;5.884;2022-09-20T19:31:53;14.69;75.14
71523;HTU21D;59343;51.102;5.884;2022-09-20T19:34:23;14.66;75.27
71523;HTU21D;59343;51.102;5.884;2022-09-20T19:37:11;14.64;75.41
71523;HTU21D;59343;51.102;5.884;2022-09-20T19:45:12;14.44;75.79
71523;HTU21D;59343;51.102;5.884;2022-09-20T19:47:59;14.43;75.89
71523;HTU21D;59343;51.102;5.884;2022-09-20T19:50:47;14.37;75.76
71523;HTU21D;59343;51.102;5.884;2022-09-20T19:53:16;14.32;75.79
71523;HTU21D;59343;51.102;5.884;2022-09-20T19:55:47;14.24;75.77
71523;HTU21D;59343;51.102;5.884;2022-09-20T19:58:15;14.20;75.95
71523;HTU21D;59343;51.102;5.884;2022-09-20T20:00:45;14.14;75.99
71523;HTU21D;59343;51.102;5.884;2022-09-20T20:03:13;14.10;76.15
71523;HTU21D;59343;51.102;5.884;2022-09-20T20:08:42;14.04;76.44
71523;HTU21D;59343;51.102;5.884;2022-09-20T20:17:06;14.00;76.66
71523;HTU21D;59343;51.102;5.884;2022-09-20T20:24:55;13.94;76.62
71523;HTU21D;59343;51.102;5.884;2022-09-20T20:27:22;13.91;76.61
71523;HTU21D;59343;51.102;5.884;2022-09-20T20:29:50;13.88;76.73
71523;HTU21D;59343;51.102;5.884;2022-09-20T20:32:16;13.85;76.77
71523;HTU21D;59343;51.102;5.884;2022-09-20T20:34:42;13.84;76.89
71523;HTU21D;59343;51.102;5.884;2022-09-20T20:37:08;13.84;77.01
71523;HTU21D;59343;51.102;5.884;2022-09-20T20:39:34;13.85;77.02
71523;HTU21D;59343;51.102;5.884;2022-09-20T20:42:01;13.83;76.90
71523;HTU21D;59343;51.102;5.884;2022-09-20T20:44:28;13.80;76.91
71523;HTU21D;59343;51.102;5.884;2022-09-20T20:46:54;13.77;77.09
71523;HTU21D;59343;51.102;5.884;2022-09-20T20:49:21;13.74;77.09
71523;HTU21D;59343;51.102;5.884;2022-09-20T20:51:47;13.70;77.19
71523;HTU21D;59343;51.102;5.884;2022-09-20T20:54:13;13.69;77.15
71523;HTU21D;59343;51.102;5.884;2022-09-20T20:56:40;13.66;77.11
71523;HTU21D;59343;51.102;5.884;2022-09-20T20:59:06;13.63;77.21
71523;HTU21D;59343;51.102;5.884;2022-09-20T21:01:35;13.61;77.15
71523;HTU21D;59343;51.102;5.884;2022-09-20T21:04:02;13.58;77.05
71523;HTU21D;59343;51.102;5.884;2022-09-20T21:06:34;13.55;77.19
71523;HTU21D;59343;51.102;5.884;2022-09-20T21:09:01;13.51;76.98
71523;HTU21D;59343;51.102;5.884;2022-09-20T21:11:30;13.46;76.95
71523;HTU21D;59343;51.102;5.884;2022-09-20T21:14:00;13.43;76.94
71523;HTU21D;59343;51.102;5.884;2022-09-20T21:16:28;13.40;77.05
71523;HTU21D;59343;51.102;5.884;2022-09-20T21:18:55;13.38;77.18
71523;HTU21D;59343;51.102;5.884;2022-09-20T21:21:27;13.38;77.24
71523;HTU21D;59343;51.102;5.884;2022-09-20T21:23:59;13.34;77.11
71523;HTU21D;59343;51.102;5.884;2022-09-20T21:26:27;13.30;77.00
71523;HTU21D;59343;51.102;5.884;2022-09-20T21:29:01;13.25;77.12
71523;HTU21D;59343;51.102;5.884;2022-09-20T21:31:31;13.22;77.08
71523;HTU21D;59343;51.102;5.884;2022-09-20T21:33:58;13.17;77.33
71523;HTU21D;59343;51.102;5.884;2022-09-20T21:36:28;13.18;77.63
71523;HTU21D;59343;51.102;5.884;2022-09-20T21:38:55;13.19;77.55
71523;HTU21D;59343;51.102;5.884;2022-09-20T21:41:27;13.18;77.72
71523;HTU21D;59343;51.102;5.884;2022-09-20T21:43:59;13.18;77.62
71523;HTU21D;59343;51.102;5.884;2022-09-20T21:46:33;13.14;77.48
71523;HTU21D;59343;51.102;5.884;2022-09-20T21:49:02;13.09;77.42
71523;HTU21D;59343;51.102;5.884;2022-09-20T21:51:35;13.04;77.42
71523;HTU21D;59343;51.102;5.884;2022-09-20T21:54:02;13.00;77.44
71523;HTU21D;59343;51.102;5.884;2022-09-20T21:56:36;13.00;77.62
71523;HTU21D;59343;51.102;5.884;2022-09-20T21:59:04;12.99;77.48
71523;HTU21D;59343;51.102;5.884;2022-09-20T22:01:37;12.96;77.59
71523;HTU21D;59343;51.102;5.884;2022-09-20T22:04:08;12.97;77.66
71523;HTU21D;59343;51.102;5.884;2022-09-20T22:06:37;12.94;77.59
71523;HTU21D;59343;51.102;5.884;2022-09-20T22:09:08;12.95;77.68
71523;HTU21D;59343;51.102;5.884;2022-09-20T22:11:40;12.95;77.57
71523;HTU21D;59343;51.102;5.884;2022-09-20T22:14:08;12.96;77.54
71523;HTU21D;59343;51.102;5.884;2022-09-20T22:16:36;12.95;77.44
71523;HTU21D;59343;51.102;5.884;2022-09-20T22:19:04;12.94;77.42
71523;HTU21D;59343;51.102;5.884;2022-09-20T22:21:35;12.92;77.48